Time,TemperatureF,DewpointF,PressureIn,WindDirection,WindDirectionDegrees,WindSpeedMPH,WindSpeedGustMPH,Humidity,HourlyPrecipIn,Conditions,Clouds,dailyrainin,SoftwareType,DateUTC
2013-04-11 00:00:00,38.4,37.4,29.85,NE,35,9.6,9.6,96,0.00,,---,0.00,VWS V14.01,2013-04-11 04:00:00,
2013-04-11 00:01:00,38.4,37.4,29.85,NE,35,9.6,9.6,96,0.00,,---,0.00,VWS V14.01,2013-04-11 04:01:00,
2013-04-11 00:06:00,38.4,37.6,29.85,NE,35,9.6,9.6,97,0.00,,---,0.00,VWS V14.01,2013-04-11 04:06:00,
2013-04-11 00:11:00,38.4,37.4,29.85,NE,35,9.6,9.6,96,0.00,,---,0.00,VWS V14.01,2013-04-11 04:11:00,
2013-04-11 00:16:00,38.6,37.6,29.88,NE,35,9.6,9.6,96,0.00,,---,0.00,VWS V14.01,2013-04-11 04:16:00,
2013-04-11 00:21:00,38.6,37.6,29.88,NE,35,9.6,9.6,96,0.00,,---,0.00,VWS V14.01,2013-04-11 04:21:00,
2013-04-11 00:27:00,38.6,37.6,29.88,NE,35,9.6,9.6,96,0.00,,---,0.00,VWS V14.01,2013-04-11 04:27:00,
2013-04-11 00:32:00,38.6,37.6,29.88,NE,35,9.6,9.6,96,0.00,,---,0.00,VWS V14.01,2013-04-11 04:32:00,
2013-04-11 00:37:00,38.6,37.6,29.88,NE,35,9.6,9.6,96,0.00,,---,0.00,VWS V14.01,2013-04-11 04:37:00,
2013-04-11 00:42:00,38.6,37.6,29.88,NE,35,9.6,9.6,96,0.00,,---,0.00,VWS V14.01,2013-04-11 04:42:00,
2013-04-11 00:48:00,38.6,37.6,29.85,NE,35,9.6,9.6,96,0.00,,---,0.00,VWS V14.01,2013-04-11 04:48:00,
2013-04-11 00:53:00,38.6,37.6,29.85,NE,35,9.6,9.6,96,0.00,,---,0.00,VWS V14.01,2013-04-11 04:53:00,
2013-04-11 00:58:00,38.6,37.6,29.85,NE,35,9.6,9.6,96,0.00,,---,0.00,VWS V14.01,2013-04-11 04:58:00,
2013-04-11 01:03:00,38.6,37.6,29.91,NE,35,9.6,9.6,96,0.00,,---,0.00,VWS V14.01,2013-04-11 05:03:00,
2013-04-11 01:08:00,38.6,37.6,29.91,NE,35,9.6,9.6,96,0.00,,---,0.00,VWS V14.01,2013-04-11 05:08:00,
2013-04-11 01:13:00,38.6,37.6,29.91,NE,35,9.6,9.6,96,0.00,,---,0.00,VWS V14.01,2013-04-11 05:13:00,
2013-04-11 01:18:00,38.6,37.6,29.94,NE,35,9.6,9.6,96,0.04,,---,0.04,VWS V14.01,2013-04-11 05:18:00,
2013-04-11 01:23:00,38.6,37.8,29.94,NE,35,9.6,9.6,97,0.04,,---,0.04,VWS V14.01,2013-04-11 05:23:00,
2013-04-11 01:28:00,38.2,37.5,29.94,NE,35,9.6,9.6,97,0.09,,---,0.09,VWS V14.01,2013-04-11 05:28:00,
2013-04-11 01:33:00,38.2,37.5,29.88,NE,35,9.6,9.6,97,0.09,,---,0.09,VWS V14.01,2013-04-11 05:33:00,
2013-04-11 01:39:00,38.2,37.7,29.88,NE,35,9.6,9.6,98,0.13,,---,0.13,VWS V14.01,2013-04-11 05:39:00,
2013-04-11 01:44:00,38.1,37.5,29.85,NE,35,9.6,9.6,98,0.13,,---,0.13,VWS V14.01,2013-04-11 05:44:00,
2013-04-11 01:49:00,38.1,37.3,29.85,NE,35,9.6,9.6,97,0.13,,---,0.13,VWS V14.01,2013-04-11 05:49:00,
2013-04-11 01:54:00,38.1,37.3,29.85,NE,35,9.6,9.6,97,0.17,,---,0.17,VWS V14.01,2013-04-11 05:54:00,
2013-04-11 01:59:00,37.9,37.1,29.88,NE,35,9.6,9.6,97,0.21,,---,0.21,VWS V14.01,2013-04-11 05:59:00,
2013-04-11 02:04:00,37.7,36.9,29.88,NE,35,14.6,14.6,97,0.21,,---,0.21,VWS V14.01,2013-04-11 06:04:00,
2013-04-11 02:10:00,37.7,37.2,29.88,NE,35,14.6,14.6,98,0.25,,---,0.25,VWS V14.01,2013-04-11 06:10:00,
2013-04-11 02:15:00,37.7,37.2,29.85,NE,35,14.6,14.6,98,0.29,,---,0.29,VWS V14.01,2013-04-11 06:15:00,
2013-04-11 02:20:00,37.5,37.0,29.85,NE,35,14.6,14.6,98,0.25,,---,0.29,VWS V14.01,2013-04-11 06:20:00,
2013-04-11 02:25:00,37.5,37.0,29.85,NE,35,14.6,14.6,98,0.29,,---,0.33,VWS V14.01,2013-04-11 06:25:00,
2013-04-11 02:30:00,37.5,37.0,29.88,NE,35,11.3,11.3,98,0.24,,---,0.33,VWS V14.01,2013-04-11 06:30:00,
2013-04-11 02:35:00,37.5,37.0,29.88,NE,35,11.3,11.3,98,0.28,,---,0.37,VWS V14.01,2013-04-11 06:35:00,
2013-04-11 02:40:00,37.3,36.8,29.88,NE,35,11.3,11.3,98,0.29,,---,0.42,VWS V14.01,2013-04-11 06:40:00,
2013-04-11 02:45:00,37.3,36.8,29.85,NE,35,11.3,11.3,98,0.29,,---,0.42,VWS V14.01,2013-04-11 06:45:00,
2013-04-11 02:51:00,37.2,36.7,29.85,NE,35,9.3,9.3,98,0.33,,---,0.46,VWS V14.01,2013-04-11 06:51:00,
2013-04-11 02:56:00,37.0,36.5,29.85,NE,35,9.3,9.3,98,0.29,,---,0.46,VWS V14.01,2013-04-11 06:56:00,
2013-04-11 03:02:00,37.0,36.5,29.85,NE,35,9.3,9.3,98,0.29,,---,0.50,VWS V14.01,2013-04-11 07:02:00,
2013-04-11 03:07:00,36.8,36.3,29.85,ENE,58,7.3,7.3,98,0.33,,---,0.54,VWS V14.01,2013-04-11 07:07:00,
2013-04-11 03:12:00,36.8,36.3,29.85,NE,35,10.9,10.9,98,0.29,,---,0.54,VWS V14.01,2013-04-11 07:12:00,
2013-04-11 03:17:00,36.8,36.3,29.85,NE,35,10.9,10.9,98,0.29,,---,0.58,VWS V14.01,2013-04-11 07:17:00,
2013-04-11 03:22:00,36.6,36.1,29.85,NE,35,10.9,10.9,98,0.29,,---,0.58,VWS V14.01,2013-04-11 07:22:00,
2013-04-11 03:27:00,36.6,36.1,29.85,NE,35,10.9,10.9,98,0.25,,---,0.58,VWS V14.01,2013-04-11 07:27:00,
2013-04-11 03:32:00,36.6,36.1,29.88,NE,35,10.9,10.9,98,0.30,,---,0.63,VWS V14.01,2013-04-11 07:32:00,
2013-04-11 03:37:00,36.6,36.1,29.88,NE,35,10.9,10.9,98,0.30,,---,0.67,VWS V14.01,2013-04-11 07:37:00,
2013-04-11 03:43:00,36.4,35.9,29.88,NE,35,10.9,10.9,98,0.29,,---,0.71,VWS V14.01,2013-04-11 07:43:00,
2013-04-11 03:48:00,36.4,35.9,29.85,ENE,58,16.2,16.2,98,0.29,,---,0.71,VWS V14.01,2013-04-11 07:48:00,
2013-04-11 03:53:00,36.4,35.9,29.85,SE,125,8.6,8.6,98,0.25,,---,0.71,VWS V14.01,2013-04-11 07:53:00,
2013-04-11 03:58:00,36.4,35.9,29.85,SE,125,8.6,8.6,98,0.29,,---,0.75,VWS V14.01,2013-04-11 07:58:00,
2013-04-11 04:03:00,36.3,35.8,29.82,SE,125,2.0,2.0,98,0.25,,---,0.75,VWS V14.01,2013-04-11 08:03:00,
2013-04-11 04:08:00,36.3,35.8,29.82,SE,125,2.0,2.0,98,0.21,,---,0.75,VWS V14.01,2013-04-11 08:08:00,
2013-04-11 04:14:00,36.3,35.8,29.82,SE,125,2.0,2.0,98,0.21,,---,0.75,VWS V14.01,2013-04-11 08:14:00,
2013-04-11 04:19:00,36.3,35.8,29.82,SE,125,2.0,2.0,98,0.21,,---,0.79,VWS V14.01,2013-04-11 08:19:00,
2013-04-11 04:24:00,36.3,35.8,29.82,SE,125,2.0,2.0,98,0.21,,---,0.79,VWS V14.01,2013-04-11 08:24:00,
2013-04-11 04:29:00,36.3,35.8,29.82,SE,125,2.0,2.0,98,0.16,,---,0.79,VWS V14.01,2013-04-11 08:29:00,
2013-04-11 04:34:00,36.3,35.8,29.82,SE,125,2.0,2.0,98,0.16,,---,0.79,VWS V14.01,2013-04-11 08:34:00,
2013-04-11 04:39:00,36.3,35.8,29.82,East,80,11.6,11.6,98,0.12,,---,0.79,VWS V14.01,2013-04-11 08:39:00,
2013-04-11 04:44:00,36.3,35.8,29.85,East,80,11.6,11.6,98,0.08,,---,0.79,VWS V14.01,2013-04-11 08:44:00,
2013-04-11 04:49:00,36.3,35.8,29.85,East,80,11.6,11.6,98,0.08,,---,0.79,VWS V14.01,2013-04-11 08:49:00,
2013-04-11 04:54:00,36.3,35.8,29.85,East,80,11.6,11.6,98,0.12,,---,0.83,VWS V14.01,2013-04-11 08:54:00,
2013-04-11 04:59:00,36.3,35.8,29.85,East,80,11.6,11.6,98,0.08,,---,0.83,VWS V14.01,2013-04-11 08:59:00,
2013-04-11 05:05:00,36.3,35.8,29.85,East,80,11.6,11.6,98,0.08,,---,0.83,VWS V14.01,2013-04-11 09:05:00,
2013-04-11 05:10:00,36.3,35.8,29.85,ENE,58,6.0,11.6,98,0.12,,---,0.87,VWS V14.01,2013-04-11 09:10:00,
2013-04-11 05:15:00,36.3,35.8,29.82,ENE,58,6.0,6.0,98,0.12,,---,0.87,VWS V14.01,2013-04-11 09:15:00,
2013-04-11 05:20:00,36.1,35.6,29.82,ESE,102,13.2,13.2,98,0.08,,---,0.87,VWS V14.01,2013-04-11 09:20:00,
2013-04-11 05:25:00,36.1,35.6,29.82,South,170,6.0,6.0,98,0.08,,---,0.87,VWS V14.01,2013-04-11 09:25:00,
2013-04-11 05:30:00,35.9,35.4,29.76,East,80,6.6,6.6,98,0.08,,---,0.87,VWS V14.01,2013-04-11 09:30:00,
2013-04-11 05:35:00,35.9,35.4,29.76,East,80,6.6,6.6,98,0.08,,---,0.87,VWS V14.01,2013-04-11 09:35:00,
2013-04-11 05:40:00,35.9,35.4,29.76,East,80,6.6,6.6,98,0.08,,---,0.87,VWS V14.01,2013-04-11 09:40:00,
2013-04-11 05:45:00,35.9,35.4,29.79,East,80,6.6,6.6,98,0.08,,---,0.87,VWS V14.01,2013-04-11 09:45:00,
2013-04-11 05:50:00,36.1,35.6,29.79,East,80,6.6,6.6,98,0.08,,---,0.87,VWS V14.01,2013-04-11 09:50:00,
2013-04-11 05:55:00,36.1,35.6,29.79,East,80,6.6,6.6,98,0.04,,---,0.87,VWS V14.01,2013-04-11 09:55:00,
2013-04-11 06:01:00,36.1,35.6,29.79,East,80,6.6,6.6,98,0.04,,---,0.87,VWS V14.01,2013-04-11 10:01:00,
2013-04-11 06:06:00,36.3,35.8,29.79,East,80,6.6,6.6,98,0.04,,---,0.87,VWS V14.01,2013-04-11 10:06:00,
2013-04-11 06:11:00,36.3,35.8,29.79,East,80,6.6,6.6,98,0.00,,---,0.87,VWS V14.01,2013-04-11 10:11:00,
2013-04-11 06:17:00,36.4,35.9,29.82,East,80,6.6,6.6,98,0.00,,---,0.87,VWS V14.01,2013-04-11 10:17:00,
2013-04-11 06:22:00,36.4,35.9,29.82,East,80,6.6,6.6,98,0.00,,---,0.87,VWS V14.01,2013-04-11 10:22:00,
2013-04-11 06:27:00,36.4,35.9,29.82,East,80,6.6,6.6,98,0.00,,---,0.87,VWS V14.01,2013-04-11 10:27:00,
2013-04-11 06:32:00,36.6,36.1,29.82,East,80,6.6,6.6,98,0.00,,---,0.87,VWS V14.01,2013-04-11 10:32:00,
2013-04-11 06:37:00,36.8,36.3,29.82,East,80,6.6,6.6,98,0.00,,---,0.87,VWS V14.01,2013-04-11 10:37:00,
2013-04-11 06:43:00,36.8,36.3,29.82,East,80,6.6,6.6,98,0.00,,---,0.87,VWS V14.01,2013-04-11 10:43:00,
2013-04-11 06:48:00,37.0,36.5,29.82,East,80,6.6,6.6,98,0.00,,---,0.87,VWS V14.01,2013-04-11 10:48:00,
2013-04-11 06:53:00,37.0,36.5,29.82,East,80,6.6,6.6,98,0.00,,---,0.87,VWS V14.01,2013-04-11 10:53:00,
2013-04-11 06:58:00,37.0,36.5,29.82,East,80,6.6,6.6,98,0.00,,---,0.87,VWS V14.01,2013-04-11 10:58:00,
2013-04-11 07:03:00,37.0,36.5,29.82,East,80,6.6,6.6,98,0.00,,---,0.87,VWS V14.01,2013-04-11 11:03:00,
2013-04-11 07:08:00,37.2,36.7,29.82,East,80,6.6,6.6,98,0.00,,---,0.87,VWS V14.01,2013-04-11 11:08:00,
2013-04-11 07:13:00,37.2,36.7,29.82,East,80,6.6,6.6,98,0.00,,---,0.87,VWS V14.01,2013-04-11 11:13:00,
2013-04-11 07:18:00,37.2,36.7,29.82,East,80,6.6,6.6,98,0.00,,---,0.87,VWS V14.01,2013-04-11 11:18:00,
2013-04-11 07:23:00,37.3,36.8,29.82,East,80,6.6,6.6,98,0.00,,---,0.87,VWS V14.01,2013-04-11 11:23:00,
2013-04-11 07:29:00,37.3,36.8,29.79,NE,35,15.6,15.6,98,0.00,,---,0.87,VWS V14.01,2013-04-11 11:29:00,
2013-04-11 07:34:00,37.3,36.8,29.79,NE,35,15.6,15.6,98,0.00,,---,0.87,VWS V14.01,2013-04-11 11:34:00,
2013-04-11 07:39:00,37.3,36.8,29.79,ENE,58,21.9,21.9,98,0.00,,---,0.87,VWS V14.01,2013-04-11 11:39:00,
2013-04-11 07:44:00,37.3,36.8,29.79,ENE,58,8.3,8.3,98,0.00,,---,0.87,VWS V14.01,2013-04-11 11:44:00,
2013-04-11 07:49:00,37.3,36.8,29.79,NE,35,4.0,4.3,98,0.00,,---,0.87,VWS V14.01,2013-04-11 11:49:00,
2013-04-11 07:54:00,37.5,37.0,29.79,NE,35,4.0,4.0,98,0.00,,---,0.87,VWS V14.01,2013-04-11 11:54:00,
2013-04-11 07:59:00,37.5,37.0,29.82,NE,35,4.0,4.0,98,0.00,,---,0.87,VWS V14.01,2013-04-11 11:59:00,
2013-04-11 08:05:00,37.5,37.0,29.82,East,80,8.3,8.3,98,0.00,,---,0.87,VWS V14.01,2013-04-11 12:05:00,
2013-04-11 08:10:00,37.5,37.0,29.82,ENE,58,8.6,8.6,98,0.00,,---,0.87,VWS V14.01,2013-04-11 12:10:00,
2013-04-11 08:15:00,37.5,37.0,29.82,North,350,7.3,8.6,98,0.00,,---,0.87,VWS V14.01,2013-04-11 12:15:00,
2013-04-11 08:20:00,37.7,37.2,29.82,ESE,102,14.2,14.2,98,0.00,,---,0.87,VWS V14.01,2013-04-11 12:20:00,
2013-04-11 08:25:00,37.7,37.2,29.82,ESE,102,14.2,14.2,98,0.00,,---,0.87,VWS V14.01,2013-04-11 12:25:00,
2013-04-11 08:30:00,37.7,37.2,29.82,East,80,4.0,4.0,98,0.00,,---,0.87,VWS V14.01,2013-04-11 12:30:00,
2013-04-11 08:35:00,37.9,37.4,29.82,East,80,4.0,4.0,98,0.00,,---,0.87,VWS V14.01,2013-04-11 12:35:00,
2013-04-11 08:41:00,37.9,37.4,29.82,East,80,4.0,4.0,98,0.00,,---,0.87,VWS V14.01,2013-04-11 12:41:00,
2013-04-11 08:47:00,37.9,37.4,29.79,East,80,4.0,4.0,98,0.00,,---,0.87,VWS V14.01,2013-04-11 12:47:00,
2013-04-11 08:52:00,38.1,37.5,29.79,East,80,4.0,4.0,98,0.00,,---,0.87,VWS V14.01,2013-04-11 12:52:00,
2013-04-11 08:57:00,37.9,37.4,29.79,NE,35,8.3,8.3,98,0.00,,---,0.87,VWS V14.01,2013-04-11 12:57:00,
2013-04-11 09:02:00,37.9,37.4,29.79,NE,35,6.3,6.3,98,0.00,,---,0.87,VWS V14.01,2013-04-11 13:02:00,
2013-04-11 09:07:00,37.9,37.4,29.79,East,80,7.3,11.6,98,0.00,,---,0.87,VWS V14.01,2013-04-11 13:07:00,
2013-04-11 09:13:00,37.9,37.4,29.79,NE,35,8.6,8.6,98,0.00,,---,0.87,VWS V14.01,2013-04-11 13:13:00,
2013-04-11 09:18:00,38.1,37.5,29.79,East,80,2.0,5.3,98,0.00,,---,0.87,VWS V14.01,2013-04-11 13:18:00,
2013-04-11 09:23:00,38.1,37.5,29.79,ENE,58,14.9,14.9,98,0.00,,---,0.87,VWS V14.01,2013-04-11 13:23:00,
2013-04-11 09:28:00,38.1,37.5,29.79,East,80,6.0,6.0,98,0.00,,---,0.87,VWS V14.01,2013-04-11 13:28:00,
2013-04-11 09:33:00,38.1,37.5,29.82,ENE,58,8.3,8.3,98,0.00,,---,0.87,VWS V14.01,2013-04-11 13:33:00,
2013-04-11 09:38:00,38.1,37.5,29.82,ENE,58,8.9,8.9,98,0.00,,---,0.87,VWS V14.01,2013-04-11 13:38:00,
2013-04-11 09:43:00,38.1,37.5,29.82,NE,35,5.6,7.9,98,0.00,,---,0.87,VWS V14.01,2013-04-11 13:43:00,
2013-04-11 09:48:00,38.2,37.7,29.79,ENE,58,10.9,10.9,98,0.00,,---,0.87,VWS V14.01,2013-04-11 13:48:00,
2013-04-11 09:54:00,38.2,37.7,29.79,ESE,102,8.3,8.3,98,0.00,,---,0.87,VWS V14.01,2013-04-11 13:54:00,
2013-04-11 09:59:00,38.2,37.7,29.79,ENE,58,7.9,7.9,98,0.00,,---,0.87,VWS V14.01,2013-04-11 13:59:00,
2013-04-11 10:04:00,38.2,37.7,29.79,ENE,58,6.0,6.0,98,0.00,,---,0.87,VWS V14.01,2013-04-11 14:04:00,
2013-04-11 10:09:00,38.2,37.7,29.79,East,80,4.6,11.9,98,0.00,,---,0.87,VWS V14.01,2013-04-11 14:09:00,
2013-04-11 10:15:00,38.4,37.9,29.76,East,80,4.3,4.3,98,0.00,,---,0.87,VWS V14.01,2013-04-11 14:15:00,
2013-04-11 10:20:00,38.4,37.9,29.76,ENE,58,11.6,11.6,98,0.00,,---,0.87,VWS V14.01,2013-04-11 14:20:00,
2013-04-11 10:25:00,38.6,38.1,29.76,NE,35,10.3,10.3,98,0.00,,---,0.87,VWS V14.01,2013-04-11 14:25:00,
2013-04-11 10:30:00,38.6,38.1,29.79,ESE,102,7.3,7.3,98,0.00,,---,0.87,VWS V14.01,2013-04-11 14:30:00,
2013-04-11 10:35:00,38.6,38.1,29.79,ESE,102,10.6,10.6,98,0.00,,---,0.87,VWS V14.01,2013-04-11 14:35:00,
2013-04-11 10:41:00,38.6,38.1,29.79,ESE,102,10.6,10.6,98,0.00,,---,0.87,VWS V14.01,2013-04-11 14:41:00,
2013-04-11 10:47:00,38.6,38.1,29.76,NE,35,9.6,9.6,98,0.00,,---,0.87,VWS V14.01,2013-04-11 14:47:00,
2013-04-11 10:53:00,38.6,38.1,29.76,ENE,58,11.6,11.6,98,0.00,,---,0.87,VWS V14.01,2013-04-11 14:53:00,
2013-04-11 10:58:00,38.6,38.1,29.76,ESE,102,10.6,10.6,98,0.00,,---,0.87,VWS V14.01,2013-04-11 14:58:00,
2013-04-11 11:03:00,38.6,38.1,29.79,East,80,10.9,12.6,98,0.00,,---,0.87,VWS V14.01,2013-04-11 15:03:00,
2013-04-11 11:08:00,38.6,38.1,29.79,ESE,102,18.5,18.5,98,0.00,,---,0.87,VWS V14.01,2013-04-11 15:08:00,
2013-04-11 11:14:00,38.6,38.1,29.76,ESE,102,18.5,18.5,98,0.00,,---,0.87,VWS V14.01,2013-04-11 15:14:00,
2013-04-11 11:19:00,38.6,38.1,29.76,ESE,102,18.5,18.5,98,0.00,,---,0.87,VWS V14.01,2013-04-11 15:19:00,
2013-04-11 11:24:00,38.6,38.1,29.76,East,80,4.6,4.6,98,0.00,,---,0.87,VWS V14.01,2013-04-11 15:24:00,
2013-04-11 11:29:00,38.6,38.1,29.76,East,80,12.6,16.2,98,0.00,,---,0.87,VWS V14.01,2013-04-11 15:29:00,
2013-04-11 11:34:00,38.6,38.1,29.76,NE,35,11.6,11.6,98,0.00,,---,0.87,VWS V14.01,2013-04-11 15:34:00,
2013-04-11 11:39:00,38.4,37.9,29.76,SE,125,8.6,8.6,98,0.00,,---,0.87,VWS V14.01,2013-04-11 15:39:00,
2013-04-11 11:45:00,38.4,37.9,29.76,East,80,4.6,4.6,98,0.00,,---,0.87,VWS V14.01,2013-04-11 15:45:00,
2013-04-11 11:50:00,38.2,37.7,29.76,East,80,4.6,13.6,98,0.00,,---,0.87,VWS V14.01,2013-04-11 15:50:00,
2013-04-11 11:55:00,38.2,37.7,29.76,East,80,11.6,11.6,98,0.04,,---,0.91,VWS V14.01,2013-04-11 15:55:00,
2013-04-11 12:00:00,38.2,37.7,29.76,NE,35,12.6,18.5,98,0.04,,---,0.00,VWS V14.01,2013-04-11 16:00:00,
2013-04-11 12:05:00,38.2,37.7,29.76,SE,125,5.6,5.6,98,0.04,,---,0.91,VWS V14.01,2013-04-11 16:05:00,
2013-04-11 12:11:00,38.2,37.7,29.76,East,80,5.6,5.6,98,0.04,,---,0.91,VWS V14.01,2013-04-11 16:11:00,
2013-04-11 12:16:00,38.2,37.7,29.79,NW,305,6.0,6.0,98,0.04,,---,0.91,VWS V14.01,2013-04-11 16:16:00,
2013-04-11 12:21:00,38.4,37.9,29.79,ENE,58,4.6,4.6,98,0.04,,---,0.91,VWS V14.01,2013-04-11 16:21:00,
2013-04-11 12:26:00,38.4,37.9,29.79,East,80,13.9,13.9,98,0.04,,---,0.91,VWS V14.01,2013-04-11 16:26:00,
2013-04-11 12:31:00,38.6,38.1,29.76,East,80,6.3,6.3,98,0.04,,---,0.91,VWS V14.01,2013-04-11 16:31:00,
2013-04-11 12:36:00,38.6,38.1,29.76,East,80,5.3,5.3,98,0.04,,---,0.91,VWS V14.01,2013-04-11 16:36:00,
2013-04-11 12:41:00,38.6,38.1,29.76,East,80,5.3,5.3,98,0.04,,---,0.91,VWS V14.01,2013-04-11 16:41:00,
2013-04-11 12:46:00,38.6,38.1,29.76,East,80,5.6,5.6,98,0.04,,---,0.91,VWS V14.01,2013-04-11 16:46:00,
2013-04-11 12:51:00,38.4,37.9,29.76,NE,35,12.9,12.9,98,0.04,,---,0.91,VWS V14.01,2013-04-11 16:51:00,
2013-04-11 12:57:00,38.4,37.9,29.76,East,80,11.9,11.9,98,0.00,,---,0.91,VWS V14.01,2013-04-11 16:57:00,
2013-04-11 13:02:00,38.4,37.9,29.76,NE,35,5.6,19.5,98,0.00,,---,0.91,VWS V14.01,2013-04-11 17:02:00,
2013-04-11 13:07:00,38.4,37.9,29.76,NE,35,5.0,9.6,98,0.00,,---,0.91,VWS V14.01,2013-04-11 17:07:00,
2013-04-11 13:12:00,38.4,37.9,29.76,NE,35,15.2,15.2,98,0.00,,---,0.91,VWS V14.01,2013-04-11 17:12:00,
2013-04-11 13:17:00,38.4,37.9,29.76,NE,35,6.3,6.3,98,0.00,,---,0.91,VWS V14.01,2013-04-11 17:17:00,
2013-04-11 13:23:00,38.4,37.9,29.76,NE,35,10.3,10.3,98,0.00,,---,0.91,VWS V14.01,2013-04-11 17:23:00,
2013-04-11 13:28:00,38.6,38.1,29.76,NE,35,15.2,17.6,98,0.00,,---,0.91,VWS V14.01,2013-04-11 17:28:00,
2013-04-11 13:33:00,38.6,38.1,29.74,SE,125,19.2,19.2,98,0.00,,---,0.91,VWS V14.01,2013-04-11 17:33:00,
2013-04-11 13:38:00,38.6,38.1,29.74,East,80,7.9,7.9,98,0.00,,---,0.91,VWS V14.01,2013-04-11 17:38:00,
2013-04-11 13:43:00,38.6,38.1,29.74,ESE,102,3.6,3.6,98,0.00,,---,0.91,VWS V14.01,2013-04-11 17:43:00,
2013-04-11 13:48:00,38.4,37.9,29.74,SE,125,12.6,17.9,98,0.00,,---,0.91,VWS V14.01,2013-04-11 17:48:00,
2013-04-11 13:54:00,38.4,37.9,29.74,NE,35,7.0,7.9,98,0.00,,---,0.91,VWS V14.01,2013-04-11 17:54:00,
2013-04-11 13:59:00,38.4,37.9,29.74,East,80,7.9,9.6,98,0.00,,---,0.91,VWS V14.01,2013-04-11 17:59:00,
2013-04-11 14:04:00,38.4,37.9,29.74,East,80,8.6,10.9,98,0.00,,---,0.91,VWS V14.01,2013-04-11 18:04:00,
2013-04-11 14:09:00,38.4,37.9,29.74,East,80,8.9,8.9,98,0.05,,---,0.96,VWS V14.01,2013-04-11 18:09:00,
2013-04-11 14:14:00,38.4,37.9,29.74,East,80,7.3,16.2,98,0.05,,---,0.96,VWS V14.01,2013-04-11 18:14:00,
2013-04-11 14:19:00,38.4,37.9,29.74,SE,125,4.6,7.3,98,0.09,,---,1.00,VWS V14.01,2013-04-11 18:19:00,
2013-04-11 14:26:00,38.6,38.1,29.74,SE,125,8.6,9.6,98,0.09,,---,1.00,VWS V14.01,2013-04-11 18:26:00,
2013-04-11 14:31:00,38.4,37.9,29.71,ESE,102,11.6,11.6,98,0.09,,---,1.00,VWS V14.01,2013-04-11 18:31:00,
2013-04-11 14:36:00,38.6,38.1,29.71,ENE,58,7.3,7.3,98,0.09,,---,1.00,VWS V14.01,2013-04-11 18:36:00,
2013-04-11 14:41:00,38.6,38.1,29.71,ESE,102,9.6,9.6,98,0.09,,---,1.00,VWS V14.01,2013-04-11 18:41:00,
2013-04-11 14:46:00,38.6,38.1,29.71,East,80,10.9,10.9,98,0.09,,---,1.00,VWS V14.01,2013-04-11 18:46:00,
2013-04-11 14:52:00,38.6,38.1,29.71,East,80,6.3,6.3,98,0.09,,---,1.00,VWS V14.01,2013-04-11 18:52:00,
2013-04-11 14:57:00,38.6,38.1,29.71,East,80,6.3,6.3,98,0.09,,---,1.00,VWS V14.01,2013-04-11 18:57:00,
2013-04-11 15:02:00,38.2,37.7,29.71,East,80,6.3,6.3,98,0.09,,---,1.00,VWS V14.01,2013-04-11 19:02:00,
2013-04-11 15:08:00,38.2,37.7,29.71,East,80,6.3,6.3,98,0.09,,---,1.00,VWS V14.01,2013-04-11 19:08:00,
2013-04-11 15:13:00,38.1,37.5,29.71,East,80,6.3,6.3,98,0.04,,---,1.00,VWS V14.01,2013-04-11 19:13:00,
2013-04-11 15:18:00,37.9,37.4,29.71,East,80,5.0,18.5,98,0.00,,---,1.00,VWS V14.01,2013-04-11 19:18:00,
2013-04-11 15:24:00,37.9,37.4,29.71,East,80,4.6,6.3,98,0.00,,---,1.00,VWS V14.01,2013-04-11 19:24:00,
2013-04-11 15:29:00,37.9,37.4,29.71,ENE,58,5.0,5.0,98,0.00,,---,1.00,VWS V14.01,2013-04-11 19:29:00,
2013-04-11 15:34:00,37.9,37.4,29.71,SE,125,5.3,5.3,98,0.00,,---,1.00,VWS V14.01,2013-04-11 19:34:00,
2013-04-11 15:39:00,37.9,37.4,29.71,East,80,6.3,6.3,98,0.04,,---,1.04,VWS V14.01,2013-04-11 19:39:00,
2013-04-11 15:44:00,37.7,37.2,29.71,East,80,8.3,8.3,98,0.04,,---,1.04,VWS V14.01,2013-04-11 19:44:00,
2013-04-11 15:50:00,37.7,37.2,29.71,ENE,58,6.0,8.3,98,0.04,,---,1.04,VWS V14.01,2013-04-11 19:50:00,
2013-04-11 15:55:00,37.7,37.2,29.71,SE,125,8.3,8.3,98,0.04,,---,1.04,VWS V14.01,2013-04-11 19:55:00,
2013-04-11 16:00:00,37.7,37.2,29.71,ESE,102,10.3,10.3,98,0.04,,---,0.00,VWS V14.01,2013-04-11 20:00:00,
2013-04-11 16:05:00,37.7,37.2,29.71,East,80,8.3,8.3,98,0.04,,---,1.04,VWS V14.01,2013-04-11 20:05:00,
2013-04-11 16:10:00,37.7,37.2,29.71,East,80,8.3,8.3,98,0.04,,---,1.04,VWS V14.01,2013-04-11 20:10:00,
2013-04-11 16:15:00,37.7,37.2,29.71,East,80,6.0,6.0,98,0.04,,---,1.04,VWS V14.01,2013-04-11 20:15:00,
2013-04-11 16:20:00,37.7,37.2,29.71,East,80,6.0,6.0,98,0.04,,---,1.04,VWS V14.01,2013-04-11 20:20:00,
2013-04-11 16:26:00,37.7,37.2,29.71,East,80,6.0,6.0,98,0.04,,---,1.04,VWS V14.01,2013-04-11 20:26:00,
2013-04-11 16:31:00,37.5,37.0,29.71,East,80,6.0,6.0,98,0.04,,---,1.04,VWS V14.01,2013-04-11 20:31:00,
2013-04-11 16:36:00,37.7,37.2,29.71,East,80,6.0,6.0,98,0.04,,---,1.04,VWS V14.01,2013-04-11 20:36:00,
2013-04-11 16:41:00,37.7,37.2,29.71,East,80,6.0,6.0,98,0.00,,---,1.04,VWS V14.01,2013-04-11 20:41:00,
2013-04-11 16:46:00,37.7,37.2,29.68,East,80,6.0,6.0,98,0.00,,---,1.04,VWS V14.01,2013-04-11 20:46:00,
2013-04-11 16:52:00,37.7,37.2,29.68,SE,125,4.0,4.0,98,0.00,,---,1.04,VWS V14.01,2013-04-11 20:52:00,
2013-04-11 16:57:00,37.5,37.0,29.68,SE,125,4.0,4.0,98,0.00,,---,1.04,VWS V14.01,2013-04-11 20:57:00,
2013-04-11 17:02:00,37.5,37.0,29.68,SE,125,4.0,4.0,98,0.00,,---,1.04,VWS V14.01,2013-04-11 21:02:00,
2013-04-11 17:07:00,37.5,37.0,29.68,SE,125,4.0,4.0,98,0.00,,---,1.04,VWS V14.01,2013-04-11 21:07:00,
2013-04-11 17:12:00,37.5,37.0,29.68,SE,125,4.0,4.0,98,0.00,,---,1.04,VWS V14.01,2013-04-11 21:12:00,
2013-04-11 17:18:00,37.5,37.0,29.68,SE,125,4.0,4.0,98,0.00,,---,1.04,VWS V14.01,2013-04-11 21:18:00,
2013-04-11 17:23:00,37.5,37.0,29.68,SE,125,4.0,4.0,98,0.00,,---,1.04,VWS V14.01,2013-04-11 21:23:00,
2013-04-11 17:28:00,37.5,37.0,29.68,SE,125,4.0,4.0,98,0.00,,---,1.04,VWS V14.01,2013-04-11 21:28:00,
2013-04-11 17:33:00,37.5,37.0,29.68,SE,125,4.0,4.0,98,0.00,,---,1.04,VWS V14.01,2013-04-11 21:33:00,
2013-04-11 17:39:00,37.5,37.0,29.68,SE,125,4.0,4.0,98,0.00,,---,1.04,VWS V14.01,2013-04-11 21:39:00,
2013-04-11 17:44:00,37.5,37.0,29.68,SE,125,4.0,4.0,98,0.00,,---,1.04,VWS V14.01,2013-04-11 21:44:00,
2013-04-11 17:49:00,37.5,37.0,29.68,SE,125,4.0,4.0,98,0.00,,---,1.04,VWS V14.01,2013-04-11 21:49:00,
2013-04-11 17:54:00,37.5,37.0,29.68,SE,125,4.0,4.0,98,0.00,,---,1.04,VWS V14.01,2013-04-11 21:54:00,
2013-04-11 17:59:00,37.5,37.0,29.68,SE,125,4.0,4.0,98,0.00,,---,1.04,VWS V14.01,2013-04-11 21:59:00,
2013-04-11 18:05:00,37.5,37.0,29.68,SE,125,4.0,4.0,98,0.00,,---,1.04,VWS V14.01,2013-04-11 22:05:00,
2013-04-11 18:10:00,37.7,37.2,29.68,SE,125,4.0,4.0,98,0.00,,---,1.04,VWS V14.01,2013-04-11 22:10:00,
2013-04-11 18:15:00,37.7,37.2,29.68,SE,125,5.6,8.3,98,0.00,,---,1.04,VWS V14.01,2013-04-11 22:15:00,
2013-04-11 18:20:00,37.7,37.2,29.68,ESE,102,7.0,7.0,98,0.04,,---,1.08,VWS V14.01,2013-04-11 22:20:00,
2013-04-11 18:25:00,37.7,37.2,29.68,ESE,102,7.0,7.0,98,0.04,,---,1.08,VWS V14.01,2013-04-11 22:25:00,
2013-04-11 18:30:00,37.5,37.0,29.68,East,80,7.0,7.0,98,0.04,,---,1.08,VWS V14.01,2013-04-11 22:30:00,
2013-04-11 18:35:00,37.5,37.0,29.68,SE,125,5.0,7.0,98,0.04,,---,1.08,VWS V14.01,2013-04-11 22:35:00,
2013-04-11 18:41:00,37.5,37.0,29.68,SE,125,5.0,5.0,98,0.04,,---,1.08,VWS V14.01,2013-04-11 22:41:00,
2013-04-11 18:47:00,37.5,37.0,29.68,SE,125,5.0,5.0,98,0.04,,---,1.08,VWS V14.01,2013-04-11 22:47:00,
2013-04-11 18:52:00,37.5,37.0,29.68,SE,125,5.0,5.0,98,0.04,,---,1.08,VWS V14.01,2013-04-11 22:52:00,
2013-04-11 18:57:00,37.5,37.0,29.68,SE,125,5.0,5.0,98,0.08,,---,1.12,VWS V14.01,2013-04-11 22:57:00,
2013-04-11 19:02:00,37.3,36.8,29.68,SE,125,5.0,5.0,98,0.08,,---,1.12,VWS V14.01,2013-04-11 23:02:00,
2013-04-11 19:08:00,37.3,36.8,29.68,SE,125,5.0,5.0,98,0.08,,---,1.12,VWS V14.01,2013-04-11 23:08:00,
2013-04-11 19:13:00,37.3,36.8,29.68,SE,125,5.0,5.0,98,0.08,,---,1.12,VWS V14.01,2013-04-11 23:13:00,
2013-04-11 19:18:00,37.3,36.8,29.65,SE,125,5.0,5.0,98,0.08,,---,1.12,VWS V14.01,2013-04-11 23:18:00,
2013-04-11 19:23:00,37.3,36.8,29.65,SE,125,5.0,5.0,98,0.04,,---,1.12,VWS V14.01,2013-04-11 23:23:00,
2013-04-11 19:28:00,37.3,36.8,29.65,SE,125,5.0,5.0,98,0.04,,---,1.12,VWS V14.01,2013-04-11 23:28:00,
2013-04-11 19:33:00,37.3,36.8,29.65,SE,125,5.0,5.0,98,0.04,,---,1.12,VWS V14.01,2013-04-11 23:33:00,
2013-04-11 19:39:00,37.3,36.8,29.65,SE,125,5.0,5.0,98,0.04,,---,1.12,VWS V14.01,2013-04-11 23:39:00,
2013-04-11 19:44:00,37.3,36.8,29.65,SE,125,5.0,5.0,98,0.04,,---,1.12,VWS V14.01,2013-04-11 23:44:00,
2013-04-11 19:49:00,37.3,36.8,29.65,SE,125,5.0,5.0,98,0.08,,---,1.16,VWS V14.01,2013-04-11 23:49:00,
2013-04-11 19:54:00,37.3,36.8,29.65,SE,125,5.0,5.0,98,0.08,,---,1.16,VWS V14.01,2013-04-11 23:54:00,
2013-04-11 19:59:00,37.3,36.8,29.65,SE,125,5.0,5.0,98,0.04,,---,1.16,VWS V14.01,2013-04-11 23:59:00,
2013-04-11 20:05:00,37.3,36.8,29.65,SE,125,5.0,5.0,98,0.04,,---,1.16,VWS V14.01,2013-04-12 00:05:00,
2013-04-11 20:10:00,37.3,36.8,29.65,SE,125,5.0,5.0,98,0.04,,---,1.16,VWS V14.01,2013-04-12 00:10:00,
2013-04-11 20:15:00,37.3,36.8,29.65,SE,125,5.0,5.0,98,0.04,,---,1.16,VWS V14.01,2013-04-12 00:15:00,
2013-04-11 20:20:00,37.2,36.7,29.65,SE,125,5.0,5.0,98,0.08,,---,1.20,VWS V14.01,2013-04-12 00:20:00,
2013-04-11 20:25:00,37.2,36.7,29.65,SE,125,5.0,5.0,98,0.08,,---,1.20,VWS V14.01,2013-04-12 00:25:00,
2013-04-11 20:30:00,37.2,36.7,29.65,SE,125,5.0,5.0,98,0.08,,---,1.20,VWS V14.01,2013-04-12 00:30:00,
2013-04-11 20:35:00,37.2,36.7,29.65,SE,125,5.0,5.0,98,0.13,,---,1.25,VWS V14.01,2013-04-12 00:35:00,
2013-04-11 20:40:00,37.0,36.5,29.65,SE,125,5.0,5.0,98,0.13,,---,1.25,VWS V14.01,2013-04-12 00:40:00,
2013-04-11 20:45:00,37.0,36.5,29.65,SE,125,5.0,5.0,98,0.17,,---,1.29,VWS V14.01,2013-04-12 00:45:00,
2013-04-11 20:50:00,37.0,36.5,29.65,SE,125,5.0,5.0,98,0.13,,---,1.29,VWS V14.01,2013-04-12 00:50:00,
2013-04-11 20:56:00,37.0,36.5,29.65,SE,125,5.0,5.0,98,0.17,,---,1.33,VWS V14.01,2013-04-12 00:56:00,
2013-04-11 21:01:00,37.0,36.5,29.65,NE,35,5.0,5.0,98,0.17,,---,1.33,VWS V14.01,2013-04-12 01:01:00,
2013-04-11 21:07:00,37.0,36.5,29.65,NE,35,5.0,5.0,98,0.21,,---,1.37,VWS V14.01,2013-04-12 01:07:00,
2013-04-11 21:12:00,37.0,36.5,29.65,NE,35,5.0,5.0,98,0.21,,---,1.37,VWS V14.01,2013-04-12 01:12:00,
2013-04-11 21:17:00,36.8,36.3,29.65,ENE,58,4.0,4.0,98,0.17,,---,1.37,VWS V14.01,2013-04-12 01:17:00,
2013-04-11 21:22:00,36.8,36.3,29.65,ESE,102,5.6,5.6,98,0.17,,---,1.37,VWS V14.01,2013-04-12 01:22:00,
2013-04-11 21:27:00,36.8,36.3,29.65,East,80,5.3,5.3,98,0.17,,---,1.37,VWS V14.01,2013-04-12 01:27:00,
2013-04-11 21:32:00,36.8,36.3,29.65,NE,35,9.3,9.3,98,0.21,,---,1.41,VWS V14.01,2013-04-12 01:32:00,
2013-04-11 21:37:00,36.8,36.3,29.65,NE,35,9.3,9.3,98,0.16,,---,1.41,VWS V14.01,2013-04-12 01:37:00,
2013-04-11 21:42:00,36.8,36.3,29.65,East,80,6.3,6.3,98,0.16,,---,1.41,VWS V14.01,2013-04-12 01:42:00,
2013-04-11 21:48:00,36.8,36.3,29.62,NE,35,8.9,8.9,98,0.12,,---,1.41,VWS V14.01,2013-04-12 01:48:00,
2013-04-11 21:53:00,36.8,36.3,29.62,NE,35,8.9,8.9,98,0.16,,---,1.45,VWS V14.01,2013-04-12 01:53:00,
2013-04-11 21:58:00,36.8,36.3,29.62,NE,35,8.9,8.9,98,0.12,,---,1.45,VWS V14.01,2013-04-12 01:58:00,
2013-04-11 22:03:00,36.8,36.3,29.65,East,80,5.6,5.6,98,0.12,,---,1.45,VWS V14.01,2013-04-12 02:03:00,
2013-04-11 22:08:00,36.8,36.3,29.65,East,80,5.3,5.3,98,0.08,,---,1.45,VWS V14.01,2013-04-12 02:08:00,
2013-04-11 22:13:00,36.8,36.3,29.65,East,80,5.3,5.3,98,0.08,,---,1.45,VWS V14.01,2013-04-12 02:13:00,
2013-04-11 22:18:00,36.8,36.3,29.62,ENE,58,4.0,4.0,98,0.13,,---,1.50,VWS V14.01,2013-04-12 02:18:00,
2013-04-11 22:24:00,36.8,36.3,29.62,SE,125,8.6,8.6,98,0.13,,---,1.50,VWS V14.01,2013-04-12 02:24:00,
2013-04-11 22:29:00,36.8,36.3,29.62,SE,125,8.6,8.6,98,0.13,,---,1.50,VWS V14.01,2013-04-12 02:29:00,
2013-04-11 22:34:00,36.8,36.3,29.62,SE,125,8.6,8.6,98,0.09,,---,1.50,VWS V14.01,2013-04-12 02:34:00,
2013-04-11 22:39:00,36.8,36.3,29.62,SE,125,8.6,8.6,98,0.09,,---,1.50,VWS V14.01,2013-04-12 02:39:00,
2013-04-11 22:44:00,36.8,36.3,29.62,SE,125,8.6,8.6,98,0.09,,---,1.50,VWS V14.01,2013-04-12 02:44:00,
2013-04-11 22:49:00,36.8,36.3,29.62,SE,125,8.6,8.6,98,0.09,,---,1.50,VWS V14.01,2013-04-12 02:49:00,
2013-04-11 22:55:00,36.8,36.3,29.62,SE,125,8.6,8.6,98,0.05,,---,1.50,VWS V14.01,2013-04-12 02:55:00,
2013-04-11 23:00:00,36.8,36.3,29.62,SE,125,8.6,8.6,98,0.05,,---,0.00,VWS V14.01,2013-04-12 03:00:00,
2013-04-11 23:05:00,37.0,36.5,29.62,SE,125,8.6,8.6,98,0.05,,---,1.50,VWS V14.01,2013-04-12 03:05:00,
2013-04-11 23:10:00,36.8,36.3,29.62,SE,125,8.6,8.6,98,0.05,,---,1.50,VWS V14.01,2013-04-12 03:10:00,
2013-04-11 23:15:00,36.8,36.3,29.62,SE,125,8.6,8.6,98,0.05,,---,1.50,VWS V14.01,2013-04-12 03:15:00,
2013-04-11 23:20:00,37.0,36.5,29.62,SE,125,8.6,8.6,98,0.04,,---,1.54,VWS V14.01,2013-04-12 03:20:00,
2013-04-11 23:25:00,37.0,36.5,29.62,SE,125,8.6,8.6,98,0.04,,---,1.54,VWS V14.01,2013-04-12 03:25:00,
2013-04-11 23:30:00,37.0,36.5,29.62,SE,125,8.6,8.6,98,0.04,,---,1.54,VWS V14.01,2013-04-12 03:30:00,
2013-04-11 23:35:00,37.0,36.5,29.62,SE,125,8.6,8.6,98,0.04,,---,1.54,VWS V14.01,2013-04-12 03:35:00,
2013-04-11 23:41:00,37.0,36.5,29.62,East,80,5.3,8.6,98,0.04,,---,1.54,VWS V14.01,2013-04-12 03:41:00,
2013-04-11 23:46:00,37.0,36.5,29.62,NE,35,5.0,5.0,98,0.04,,---,1.54,VWS V14.01,2013-04-12 03:46:00,
2013-04-11 23:51:00,36.8,36.3,29.62,SE,125,5.0,5.0,98,0.04,,---,1.54,VWS V14.01,2013-04-12 03:51:00,
2013-04-11 23:57:00,36.8,36.3,29.62,East,80,4.6,4.6,98,0.04,,---,1.54,VWS V14.01,2013-04-12 03:57:00,